sensor_id;sensor_type;location;lat;lon;timestamp;temperature;humidity
7174;DHT22;3628;48.654;8.932;2023-02-23T00:01:39;9.90;99.90
7174;DHT22;3628;48.654;8.932;2023-02-23T00:04:05;9.90;99.90
7174;DHT22;3628;48.654;8.932;2023-02-23T00:06:32;9.90;99.90
7174;DHT22;3628;48.654;8.932;2023-02-23T00:08:58;9.90;99.90
7174;DHT22;3628;48.654;8.932;2023-02-23T00:11:26;9.90;99.90
7174;DHT22;3628;48.654;8.932;2023-02-23T00:13:51;9.90;99.90
7174;DHT22;3628;48.654;8.932;2023-02-23T00:16:22;9.90;99.90
7174;DHT22;3628;48.654;8.932;2023-02-23T00:18:56;9.80;99.90
7174;DHT22;3628;48.654;8.932;2023-02-23T00:21:27;9.80;99.90
7174;DHT22;3628;48.654;8.932;2023-02-23T00:23:57;9.80;99.90
7174;DHT22;3628;48.654;8.932;2023-02-23T00:26:25;9.80;99.90
7174;DHT22;3628;48.654;8.932;2023-02-23T00:28:52;9.70;99.90
7174;DHT22;3628;48.654;8.932;2023-02-23T00:31:18;9.60;99.90
7174;DHT22;3628;48.654;8.932;2023-02-23T00:33:50;9.60;99.90
7174;DHT22;3628;48.654;8.932;2023-02-23T00:36:20;9.60;99.90
7174;DHT22;3628;48.654;8.932;2023-02-23T00:38:46;9.50;99.90
7174;DHT22;3628;48.654;8.932;2023-02-23T00:41:15;9.60;99.90
7174;DHT22;3628;48.654;8.932;2023-02-23T00:43:53;9.60;99.90
7174;DHT22;3628;48.654;8.932;2023-02-23T00:46:20;9.60;99.90
7174;DHT22;3628;48.654;8.932;2023-02-23T00:48:47;9.60;99.90
7174;DHT22;3628;48.654;8.932;2023-02-23T00:51:13;9.60;99.90
7174;DHT22;3628;48.654;8.932;2023-02-23T00:53:40;9.60;99.90
7174;DHT22;3628;48.654;8.932;2023-02-23T00:56:07;9.60;99.90
7174;DHT22;3628;48.654;8.932;2023-02-23T00:58:33;9.60;99.90
7174;DHT22;3628;48.654;8.932;2023-02-23T01:00:59;9.60;99.90
7174;DHT22;3628;48.654;8.932;2023-02-23T01:03:26;9.70;99.90
7174;DHT22;3628;48.654;8.932;2023-02-23T01:05:51;9.70;99.90
7174;DHT22;3628;48.654;8.932;2023-02-23T01:08:19;9.70;99.90
7174;DHT22;3628;48.654;8.932;2023-02-23T01:10:45;9.70;99.90
7174;DHT22;3628;48.654;8.932;2023-02-23T01:13:19;9.70;99.90
7174;DHT22;3628;48.654;8.932;2023-02-23T01:15:44;9.70;99.90
7174;DHT22;3628;48.654;8.932;2023-02-23T01:18:13;9.70;99.90
7174;DHT22;3628;48.654;8.932;2023-02-23T01:20:38;9.60;99.90
7174;DHT22;3628;48.654;8.932;2023-02-23T01:23:06;9.60;99.90
7174;DHT22;3628;48.654;8.932;2023-02-23T01:25:33;9.60;99.90
7174;DHT22;3628;48.654;8.932;2023-02-23T01:27:58;9.60;99.90
7174;DHT22;3628;48.654;8.932;2023-02-23T01:30:24;9.60;99.90
7174;DHT22;3628;48.654;8.932;2023-02-23T01:32:49;9.60;99.90
7174;DHT22;3628;48.654;8.932;2023-02-23T01:35:16;9.50;99.90
7174;DHT22;3628;48.654;8.932;2023-02-23T01:37:42;9.50;99.90
7174;DHT22;3628;48.654;8.932;2023-02-23T01:40:15;9.40;99.90
7174;DHT22;3628;48.654;8.932;2023-02-23T01:42:53;9.40;99.90
7174;DHT22;3628;48.654;8.932;2023-02-23T01:48:04;9.30;99.90
7174;DHT22;3628;48.654;8.932;2023-02-23T01:50:41;9.30;99.90
7174;DHT22;3628;48.654;8.932;2023-02-23T01:53:08;9.30;99.90
7174;DHT22;3628;48.654;8.932;2023-02-23T01:55:35;9.30;99.90
7174;DHT22;3628;48.654;8.932;2023-02-23T01:58:05;9.30;99.90
7174;DHT22;3628;48.654;8.932;2023-02-23T02:00:32;9.30;99.90
7174;DHT22;3628;48.654;8.932;2023-02-23T02:03:04;9.40;99.90
7174;DHT22;3628;48.654;8.932;2023-02-23T02:05:34;9.40;99.90
7174;DHT22;3628;48.654;8.932;2023-02-23T02:08:00;9.40;99.90
7174;DHT22;3628;48.654;8.932;2023-02-23T02:10:26;9.40;99.90
7174;DHT22;3628;48.654;8.932;2023-02-23T02:13:06;9.40;99.90
7174;DHT22;3628;48.654;8.932;2023-02-23T02:15:37;9.40;99.90
7174;DHT22;3628;48.654;8.932;2023-02-23T02:26:29;9.40;99.90
7174;DHT22;3628;48.654;8.932;2023-02-23T02:45:19;9.30;99.90
7174;DHT22;3628;48.654;8.932;2023-02-23T02:47:57;9.30;99.90
7174;DHT22;3628;48.654;8.932;2023-02-23T02:50:39;9.30;99.90
7174;DHT22;3628;48.654;8.932;2023-02-23T02:53:10;9.30;99.90
7174;DHT22;3628;48.654;8.932;2023-02-23T02:55:39;9.30;99.90
7174;DHT22;3628;48.654;8.932;2023-02-23T02:58:09;9.30;99.90
7174;DHT22;3628;48.654;8.932;2023-02-23T03:00:41;9.20;99.90
7174;DHT22;3628;48.654;8.932;2023-02-23T03:03:28;9.20;99.90
7174;DHT22;3628;48.654;8.932;2023-02-23T03:06:14;9.20;99.90
7174;DHT22;3628;48.654;8.932;2023-02-23T03:09:28;9.30;99.90
7174;DHT22;3628;48.654;8.932;2023-02-23T03:12:33;9.30;99.90
7174;DHT22;3628;48.654;8.932;2023-02-23T03:21:05;9.20;99.90
7174;DHT22;3628;48.654;8.932;2023-02-23T03:24:01;9.20;99.90
7174;DHT22;3628;48.654;8.932;2023-02-23T03:26:54;9.20;99.90
7174;DHT22;3628;48.654;8.932;2023-02-23T03:29:57;9.30;99.90
7174;DHT22;3628;48.654;8.932;2023-02-23T03:32:49;9.30;99.90
7174;DHT22;3628;48.654;8.932;2023-02-23T03:35:52;9.30;99.90
7174;DHT22;3628;48.654;8.932;2023-02-23T03:38:45;9.30;99.90
7174;DHT22;3628;48.654;8.932;2023-02-23T03:41:32;9.30;99.90
7174;DHT22;3628;48.654;8.932;2023-02-23T03:44:22;9.30;99.90
7174;DHT22;3628;48.654;8.932;2023-02-23T03:47:09;9.40;99.90
7174;DHT22;3628;48.654;8.932;2023-02-23T03:49:55;9.40;99.90
7174;DHT22;3628;48.654;8.932;2023-02-23T03:52:51;9.40;99.90
7174;DHT22;3628;48.654;8.932;2023-02-23T03:55:49;9.40;99.90
7174;DHT22;3628;48.654;8.932;2023-02-23T03:58:40;9.40;99.90
7174;DHT22;3628;48.654;8.932;2023-02-23T04:01:27;9.40;99.90
7174;DHT22;3628;48.654;8.932;2023-02-23T04:04:13;9.30;99.90
7174;DHT22;3628;48.654;8.932;2023-02-23T04:06:58;9.30;99.90
7174;DHT22;3628;48.654;8.932;2023-02-23T04:09:43;9.30;99.90
7174;DHT22;3628;48.654;8.932;2023-02-23T04:15:49;9.20;99.90
7174;DHT22;3628;48.654;8.932;2023-02-23T04:18:21;9.20;99.90
7174;DHT22;3628;48.654;8.932;2023-02-23T04:20:47;9.30;99.90
7174;DHT22;3628;48.654;8.932;2023-02-23T04:23:13;9.20;99.90
7174;DHT22;3628;48.654;8.932;2023-02-23T04:25:38;9.30;99.90
7174;DHT22;3628;48.654;8.932;2023-02-23T04:28:04;9.30;99.90
7174;DHT22;3628;48.654;8.932;2023-02-23T04:30:30;9.20;99.90
7174;DHT22;3628;48.654;8.932;2023-02-23T04:32:56;9.20;99.90
7174;DHT22;3628;48.654;8.932;2023-02-23T04:35:23;9.20;99.90
7174;DHT22;3628;48.654;8.932;2023-02-23T04:37:49;9.20;99.90
7174;DHT22;3628;48.654;8.932;2023-02-23T04:40:15;9.20;99.90
7174;DHT22;3628;48.654;8.932;2023-02-23T04:42:40;9.20;99.90
7174;DHT22;3628;48.654;8.932;2023-02-23T04:45:07;9.20;99.90
7174;DHT22;3628;48.654;8.932;2023-02-23T04:47:33;9.20;99.90
7174;DHT22;3628;48.654;8.932;2023-02-23T04:49:58;9.20;99.90
7174;DHT22;3628;48.654;8.932;2023-02-23T04:52:24;9.20;99.90
7174;DHT22;3628;48.654;8.932;2023-02-23T04:54:49;9.20;99.90
7174;DHT22;3628;48.654;8.932;2023-02-23T04:57:15;9.20;99.90
7174;DHT22;3628;48.654;8.932;2023-02-23T04:59:40;9.20;99.90
7174;DHT22;3628;48.654;8.932;2023-02-23T05:02:07;9.10;99.90
7174;DHT22;3628;48.654;8.932;2023-02-23T05:04:32;9.10;99.90
7174;DHT22;3628;48.654;8.932;2023-02-23T05:07:01;9.10;99.90
7174;DHT22;3628;48.654;8.932;2023-02-23T05:09:28;9.10;99.90
7174;DHT22;3628;48.654;8.932;2023-02-23T05:11:53;9.10;99.90
7174;DHT22;3628;48.654;8.932;2023-02-23T05:14:19;9.10;99.90
7174;DHT22;3628;48.654;8.932;2023-02-23T05:16:45;9.10;99.90
7174;DHT22;3628;48.654;8.932;2023-02-23T05:19:10;9.10;99.90
7174;DHT22;3628;48.654;8.932;2023-02-23T05:21:36;9.10;99.90
7174;DHT22;3628;48.654;8.932;2023-02-23T05:24:03;9.10;99.90
7174;DHT22;3628;48.654;8.932;2023-02-23T05:26:29;9.10;99.90
7174;DHT22;3628;48.654;8.932;2023-02-23T05:28:54;9.00;99.90
7174;DHT22;3628;48.654;8.932;2023-02-23T05:31:21;9.10;99.90
7174;DHT22;3628;48.654;8.932;2023-02-23T05:33:47;9.10;99.90
7174;DHT22;3628;48.654;8.932;2023-02-23T05:36:16;9.10;99.90
7174;DHT22;3628;48.654;8.932;2023-02-23T05:38:43;9.10;99.90
7174;DHT22;3628;48.654;8.932;2023-02-23T05:41:11;9.00;99.90
7174;DHT22;3628;48.654;8.932;2023-02-23T05:43:37;9.10;99.90
7174;DHT22;3628;48.654;8.932;2023-02-23T05:46:11;9.10;99.90
7174;DHT22;3628;48.654;8.932;2023-02-23T05:48:37;9.00;99.90
7174;DHT22;3628;48.654;8.932;2023-02-23T05:51:04;8.90;99.90
7174;DHT22;3628;48.654;8.932;2023-02-23T05:53:30;8.90;99.90
7174;DHT22;3628;48.654;8.932;2023-02-23T05:55:56;8.80;99.90
7174;DHT22;3628;48.654;8.932;2023-02-23T05:58:22;8.70;99.90
7174;DHT22;3628;48.654;8.932;2023-02-23T06:00:48;8.70;99.90
7174;DHT22;3628;48.654;8.932;2023-02-23T06:03:13;8.70;99.90
7174;DHT22;3628;48.654;8.932;2023-02-23T06:05:40;8.70;99.90
7174;DHT22;3628;48.654;8.932;2023-02-23T06:08:06;8.80;99.90
7174;DHT22;3628;48.654;8.932;2023-02-23T06:10:32;8.80;99.90
7174;DHT22;3628;48.654;8.932;2023-02-23T06:12:57;8.80;99.90
7174;DHT22;3628;48.654;8.932;2023-02-23T06:15:23;8.80;99.90
7174;DHT22;3628;48.654;8.932;2023-02-23T06:17:48;8.80;99.90
7174;DHT22;3628;48.654;8.932;2023-02-23T06:20:14;8.80;99.90
7174;DHT22;3628;48.654;8.932;2023-02-23T06:22:39;8.80;99.90
7174;DHT22;3628;48.654;8.932;2023-02-23T06:25:06;8.80;99.90
7174;DHT22;3628;48.654;8.932;2023-02-23T06:27:37;8.80;99.90
7174;DHT22;3628;48.654;8.932;2023-02-23T06:30:04;8.80;99.90
7174;DHT22;3628;48.654;8.932;2023-02-23T06:32:29;8.80;99.90
7174;DHT22;3628;48.654;8.932;2023-02-23T06:34:55;8.80;99.90
7174;DHT22;3628;48.654;8.932;2023-02-23T06:37:20;8.80;99.90
7174;DHT22;3628;48.654;8.932;2023-02-23T06:39:46;8.80;99.90
7174;DHT22;3628;48.654;8.932;2023-02-23T06:42:12;8.80;99.90
7174;DHT22;3628;48.654;8.932;2023-02-23T06:44:38;8.80;99.90
7174;DHT22;3628;48.654;8.932;2023-02-23T06:47:04;8.80;99.90
7174;DHT22;3628;48.654;8.932;2023-02-23T06:49:32;8.90;99.90
7174;DHT22;3628;48.654;8.932;2023-02-23T06:51:58;8.80;99.90
7174;DHT22;3628;48.654;8.932;2023-02-23T06:54:24;8.90;99.90
7174;DHT22;3628;48.654;8.932;2023-02-23T06:56:50;8.90;99.90
7174;DHT22;3628;48.654;8.932;2023-02-23T06:59:17;8.90;99.90
7174;DHT22;3628;48.654;8.932;2023-02-23T07:01:43;8.80;99.90
7174;DHT22;3628;48.654;8.932;2023-02-23T07:04:09;8.80;99.90
7174;DHT22;3628;48.654;8.932;2023-02-23T07:06:35;8.80;99.90
7174;DHT22;3628;48.654;8.932;2023-02-23T07:09:00;8.90;99.90
7174;DHT22;3628;48.654;8.932;2023-02-23T07:11:26;8.90;99.90
7174;DHT22;3628;48.654;8.932;2023-02-23T07:13:51;9.00;99.90
7174;DHT22;3628;48.654;8.932;2023-02-23T07:16:17;9.00;99.90
7174;DHT22;3628;48.654;8.932;2023-02-23T07:18:42;9.10;99.90
7174;DHT22;3628;48.654;8.932;2023-02-23T07:21:08;9.10;99.90
7174;DHT22;3628;48.654;8.932;2023-02-23T07:23:34;9.10;99.90
7174;DHT22;3628;48.654;8.932;2023-02-23T07:25:59;9.20;99.90
7174;DHT22;3628;48.654;8.932;2023-02-23T07:28:25;9.20;99.90
7174;DHT22;3628;48.654;8.932;2023-02-23T07:30:57;9.10;99.90
7174;DHT22;3628;48.654;8.932;2023-02-23T07:33:23;9.20;99.90
7174;DHT22;3628;48.654;8.932;2023-02-23T07:35:50;9.20;99.90
7174;DHT22;3628;48.654;8.932;2023-02-23T07:38:15;9.30;99.90
7174;DHT22;3628;48.654;8.932;2023-02-23T07:40:41;9.30;99.90
7174;DHT22;3628;48.654;8.932;2023-02-23T07:43:08;9.40;99.90
7174;DHT22;3628;48.654;8.932;2023-02-23T07:45:34;9.50;99.90
7174;DHT22;3628;48.654;8.932;2023-02-23T07:48:00;9.60;99.90
7174;DHT22;3628;48.654;8.932;2023-02-23T07:50:25;9.60;99.90
7174;DHT22;3628;48.654;8.932;2023-02-23T07:52:51;9.70;99.90
7174;DHT22;3628;48.654;8.932;2023-02-23T07:55:17;9.80;99.90
7174;DHT22;3628;48.654;8.932;2023-02-23T07:57:43;9.80;99.90
7174;DHT22;3628;48.654;8.932;2023-02-23T08:00:10;9.90;99.90
7174;DHT22;3628;48.654;8.932;2023-02-23T08:02:36;10.00;99.90
7174;DHT22;3628;48.654;8.932;2023-02-23T08:05:02;10.00;99.90
7174;DHT22;3628;48.654;8.932;2023-02-23T08:07:27;10.00;99.90
7174;DHT22;3628;48.654;8.932;2023-02-23T08:09:53;10.00;99.90
7174;DHT22;3628;48.654;8.932;2023-02-23T08:12:19;10.00;99.90
7174;DHT22;3628;48.654;8.932;2023-02-23T08:14:44;10.10;99.90
7174;DHT22;3628;48.654;8.932;2023-02-23T08:17:10;10.20;99.90
7174;DHT22;3628;48.654;8.932;2023-02-23T08:19:36;10.20;99.90
7174;DHT22;3628;48.654;8.932;2023-02-23T08:22:02;10.30;99.90
7174;DHT22;3628;48.654;8.932;2023-02-23T08:24:28;10.40;99.90
7174;DHT22;3628;48.654;8.932;2023-02-23T08:26:56;10.40;99.90
7174;DHT22;3628;48.654;8.932;2023-02-23T08:29:21;10.40;99.90
7174;DHT22;3628;48.654;8.932;2023-02-23T08:31:47;10.60;99.90
7174;DHT22;3628;48.654;8.932;2023-02-23T08:34:14;10.60;99.90
7174;DHT22;3628;48.654;8.932;2023-02-23T08:36:39;10.70;99.90
7174;DHT22;3628;48.654;8.932;2023-02-23T08:39:06;10.70;99.90
7174;DHT22;3628;48.654;8.932;2023-02-23T08:41:33;10.80;99.90
7174;DHT22;3628;48.654;8.932;2023-02-23T08:43:59;10.80;99.90
7174;DHT22;3628;48.654;8.932;2023-02-23T08:46:24;11.00;99.90
7174;DHT22;3628;48.654;8.932;2023-02-23T08:48:50;11.10;99.90
7174;DHT22;3628;48.654;8.932;2023-02-23T08:51:16;11.10;99.90
7174;DHT22;3628;48.654;8.932;2023-02-23T08:53:42;11.20;99.90
7174;DHT22;3628;48.654;8.932;2023-02-23T08:56:09;11.20;99.90
7174;DHT22;3628;48.654;8.932;2023-02-23T08:58:35;11.50;99.90
7174;DHT22;3628;48.654;8.932;2023-02-23T09:01:02;11.60;99.90
7174;DHT22;3628;48.654;8.932;2023-02-23T09:03:28;11.70;99.90
7174;DHT22;3628;48.654;8.932;2023-02-23T09:06:04;11.90;99.90
7174;DHT22;3628;48.654;8.932;2023-02-23T09:08:30;12.00;99.90
7174;DHT22;3628;48.654;8.932;2023-02-23T09:10:56;12.20;99.90
7174;DHT22;3628;48.654;8.932;2023-02-23T09:13:21;12.20;99.90
7174;DHT22;3628;48.654;8.932;2023-02-23T09:15:47;12.30;99.90
7174;DHT22;3628;48.654;8.932;2023-02-23T09:18:13;12.30;99.90
7174;DHT22;3628;48.654;8.932;2023-02-23T09:20:43;12.50;99.90
7174;DHT22;3628;48.654;8.932;2023-02-23T09:23:12;12.60;99.90
7174;DHT22;3628;48.654;8.932;2023-02-23T09:25:44;12.70;99.90
7174;DHT22;3628;48.654;8.932;2023-02-23T09:28:14;12.80;99.90
7174;DHT22;3628;48.654;8.932;2023-02-23T09:30:41;12.90;99.90
7174;DHT22;3628;48.654;8.932;2023-02-23T09:33:08;12.90;99.90
7174;DHT22;3628;48.654;8.932;2023-02-23T09:35:34;12.80;99.90
7174;DHT22;3628;48.654;8.932;2023-02-23T09:38:02;13.00;99.90
7174;DHT22;3628;48.654;8.932;2023-02-23T09:40:53;13.20;99.90
7174;DHT22;3628;48.654;8.932;2023-02-23T09:43:47;13.40;99.90
7174;DHT22;3628;48.654;8.932;2023-02-23T09:49:01;13.70;99.90
7174;DHT22;3628;48.654;8.932;2023-02-23T09:51:29;13.70;99.90
7174;DHT22;3628;48.654;8.932;2023-02-23T09:53:58;13.80;99.90
7174;DHT22;3628;48.654;8.932;2023-02-23T09:56:42;13.80;99.90
7174;DHT22;3628;48.654;8.932;2023-02-23T09:59:15;13.80;99.90
7174;DHT22;3628;48.654;8.932;2023-02-23T10:04:26;14.00;99.90
7174;DHT22;3628;48.654;8.932;2023-02-23T10:07:12;14.20;99.90
7174;DHT22;3628;48.654;8.932;2023-02-23T10:15:19;14.50;99.90
7174;DHT22;3628;48.654;8.932;2023-02-23T10:17:51;14.50;99.90
7174;DHT22;3628;48.654;8.932;2023-02-23T10:22:52;14.70;99.90
7174;DHT22;3628;48.654;8.932;2023-02-23T10:25:23;14.90;99.90
7174;DHT22;3628;48.654;8.932;2023-02-23T10:27:50;15.00;99.90
7174;DHT22;3628;48.654;8.932;2023-02-23T10:30:24;15.10;99.90
7174;DHT22;3628;48.654;8.932;2023-02-23T10:33:24;15.10;99.90
7174;DHT22;3628;48.654;8.932;2023-02-23T10:35:51;15.10;99.90
7174;DHT22;3628;48.654;8.932;2023-02-23T10:38:19;15.10;99.90
7174;DHT22;3628;48.654;8.932;2023-02-23T10:40:50;15.00;99.90
7174;DHT22;3628;48.654;8.932;2023-02-23T10:43:17;14.90;99.90
7174;DHT22;3628;48.654;8.932;2023-02-23T10:45:47;15.00;99.90
7174;DHT22;3628;48.654;8.932;2023-02-23T10:48:21;14.90;99.90
7174;DHT22;3628;48.654;8.932;2023-02-23T10:50:49;14.80;99.90
7174;DHT22;3628;48.654;8.932;2023-02-23T10:53:25;14.80;99.90
7174;DHT22;3628;48.654;8.932;2023-02-23T10:58:46;14.90;99.90
7174;DHT22;3628;48.654;8.932;2023-02-23T11:01:14;14.90;99.90
7174;DHT22;3628;48.654;8.932;2023-02-23T11:03:45;15.00;99.90
7174;DHT22;3628;48.654;8.932;2023-02-23T11:06:36;15.10;99.90
7174;DHT22;3628;48.654;8.932;2023-02-23T11:12:00;15.20;99.90
7174;DHT22;3628;48.654;8.932;2023-02-23T11:14:29;15.20;99.90
7174;DHT22;3628;48.654;8.932;2023-02-23T11:16:57;15.10;99.90
7174;DHT22;3628;48.654;8.932;2023-02-23T11:19:34;15.10;99.90
7174;DHT22;3628;48.654;8.932;2023-02-23T11:22:02;15.10;99.90
7174;DHT22;3628;48.654;8.932;2023-02-23T11:24:33;15.20;99.90
7174;DHT22;3628;48.654;8.932;2023-02-23T11:27:02;15.10;99.90
7174;DHT22;3628;48.654;8.932;2023-02-23T11:29:37;15.10;99.90
7174;DHT22;3628;48.654;8.932;2023-02-23T11:32:16;15.20;99.90
7174;DHT22;3628;48.654;8.932;2023-02-23T11:34:43;15.30;99.90
7174;DHT22;3628;48.654;8.932;2023-02-23T11:37:19;15.30;99.90
7174;DHT22;3628;48.654;8.932;2023-02-23T11:39:57;15.40;99.90
7174;DHT22;3628;48.654;8.932;2023-02-23T11:42:24;15.50;99.90
7174;DHT22;3628;48.654;8.932;2023-02-23T11:45:02;15.50;99.90
7174;DHT22;3628;48.654;8.932;2023-02-23T11:47:28;15.40;99.90
7174;DHT22;3628;48.654;8.932;2023-02-23T11:49:55;15.40;99.90
7174;DHT22;3628;48.654;8.932;2023-02-23T11:52:23;15.50;99.90
7174;DHT22;3628;48.654;8.932;2023-02-23T11:54:58;15.60;99.90
7174;DHT22;3628;48.654;8.932;2023-02-23T11:57:30;15.60;99.90
7174;DHT22;3628;48.654;8.932;2023-02-23T12:00:00;15.50;99.90
7174;DHT22;3628;48.654;8.932;2023-02-23T12:02:30;15.60;99.90
7174;DHT22;3628;48.654;8.932;2023-02-23T12:05:12;15.70;99.90
7174;DHT22;3628;48.654;8.932;2023-02-23T12:08:05;15.70;99.90
7174;DHT22;3628;48.654;8.932;2023-02-23T12:10:43;15.80;99.90
7174;DHT22;3628;48.654;8.932;2023-02-23T12:13:33;15.90;99.90
7174;DHT22;3628;48.654;8.932;2023-02-23T12:16:21;15.90;99.90
7174;DHT22;3628;48.654;8.932;2023-02-23T12:21:47;15.90;99.90
7174;DHT22;3628;48.654;8.932;2023-02-23T12:33:11;15.90;99.90
7174;DHT22;3628;48.654;8.932;2023-02-23T12:35:58;15.80;99.90
7174;DHT22;3628;48.654;8.932;2023-02-23T12:38:45;15.70;99.90
7174;DHT22;3628;48.654;8.932;2023-02-23T12:44:00;15.70;99.90
7174;DHT22;3628;48.654;8.932;2023-02-23T12:46:35;15.70;99.90
7174;DHT22;3628;48.654;8.932;2023-02-23T12:54:14;15.50;99.90
7174;DHT22;3628;48.654;8.932;2023-02-23T12:57:21;15.30;99.90
7174;DHT22;3628;48.654;8.932;2023-02-23T13:11:09;14.60;99.90
7174;DHT22;3628;48.654;8.932;2023-02-23T13:14:03;14.50;99.90
7174;DHT22;3628;48.654;8.932;2023-02-23T13:16:40;14.60;99.90
7174;DHT22;3628;48.654;8.932;2023-02-23T13:19:12;14.60;99.90
7174;DHT22;3628;48.654;8.932;2023-02-23T13:22:10;14.60;99.90
7174;DHT22;3628;48.654;8.932;2023-02-23T13:24:38;14.50;99.90
7174;DHT22;3628;48.654;8.932;2023-02-23T13:27:29;14.50;99.90
7174;DHT22;3628;48.654;8.932;2023-02-23T13:29:57;14.50;99.90
7174;DHT22;3628;48.654;8.932;2023-02-23T13:32:26;14.40;99.90
7174;DHT22;3628;48.654;8.932;2023-02-23T13:34:57;14.30;99.90
7174;DHT22;3628;48.654;8.932;2023-02-23T13:37:32;14.20;99.90
7174;DHT22;3628;48.654;8.932;2023-02-23T13:43:13;14.10;99.90
7174;DHT22;3628;48.654;8.932;2023-02-23T13:48:58;14.00;99.90
7174;DHT22;3628;48.654;8.932;2023-02-23T13:56:53;13.90;99.90
7174;DHT22;3628;48.654;8.932;2023-02-23T13:59:42;13.80;99.90
7174;DHT22;3628;48.654;8.932;2023-02-23T14:02:29;13.90;99.90
7174;DHT22;3628;48.654;8.932;2023-02-23T14:07:41;13.90;99.90
7174;DHT22;3628;48.654;8.932;2023-02-23T14:10:16;13.90;99.90
7174;DHT22;3628;48.654;8.932;2023-02-23T14:23:47;14.30;99.90
7174;DHT22;3628;48.654;8.932;2023-02-23T14:26:16;14.20;99.90
7174;DHT22;3628;48.654;8.932;2023-02-23T14:29:39;14.20;99.90
7174;DHT22;3628;48.654;8.932;2023-02-23T14:37:33;13.90;99.90
7174;DHT22;3628;48.654;8.932;2023-02-23T14:42:31;13.40;99.90
7174;DHT22;3628;48.654;8.932;2023-02-23T14:45:03;13.10;99.90
7174;DHT22;3628;48.654;8.932;2023-02-23T14:47:29;13.00;99.90
7174;DHT22;3628;48.654;8.932;2023-02-23T14:50:10;13.00;99.90
7174;DHT22;3628;48.654;8.932;2023-02-23T14:52:41;13.00;99.90
7174;DHT22;3628;48.654;8.932;2023-02-23T14:57:40;12.80;99.90
7174;DHT22;3628;48.654;8.932;2023-02-23T15:02:40;12.40;99.90
7174;DHT22;3628;48.654;8.932;2023-02-23T15:05:17;12.30;99.90
7174;DHT22;3628;48.654;8.932;2023-02-23T15:07:43;12.20;99.90
7174;DHT22;3628;48.654;8.932;2023-02-23T15:10:19;12.20;99.90
7174;DHT22;3628;48.654;8.932;2023-02-23T15:12:47;12.10;99.90
7174;DHT22;3628;48.654;8.932;2023-02-23T15:15:18;12.10;99.90
7174;DHT22;3628;48.654;8.932;2023-02-23T15:17:46;12.10;99.90
7174;DHT22;3628;48.654;8.932;2023-02-23T15:20:15;12.20;99.90
7174;DHT22;3628;48.654;8.932;2023-02-23T15:22:44;12.20;99.90
7174;DHT22;3628;48.654;8.932;2023-02-23T15:25:19;12.30;99.90
7174;DHT22;3628;48.654;8.932;2023-02-23T15:27:46;12.30;99.90
7174;DHT22;3628;48.654;8.932;2023-02-23T15:30:23;12.30;99.90
7174;DHT22;3628;48.654;8.932;2023-02-23T15:33:02;12.20;99.90
7174;DHT22;3628;48.654;8.932;2023-02-23T15:35:28;12.20;99.90
7174;DHT22;3628;48.654;8.932;2023-02-23T15:37:57;12.20;99.90
7174;DHT22;3628;48.654;8.932;2023-02-23T15:40:25;12.10;99.90
7174;DHT22;3628;48.654;8.932;2023-02-23T15:42:54;12.00;99.90
7174;DHT22;3628;48.654;8.932;2023-02-23T15:45:39;12.00;99.90
7174;DHT22;3628;48.654;8.932;2023-02-23T15:48:10;11.90;99.90
7174;DHT22;3628;48.654;8.932;2023-02-23T15:50:43;11.80;99.90
7174;DHT22;3628;48.654;8.932;2023-02-23T15:53:25;11.80;99.90
7174;DHT22;3628;48.654;8.932;2023-02-23T15:55:55;11.90;99.90
7174;DHT22;3628;48.654;8.932;2023-02-23T15:58:28;11.80;99.90
7174;DHT22;3628;48.654;8.932;2023-02-23T16:00:57;11.80;99.90
7174;DHT22;3628;48.654;8.932;2023-02-23T16:03:28;11.80;99.90
7174;DHT22;3628;48.654;8.932;2023-02-23T16:06:17;11.90;99.90
7174;DHT22;3628;48.654;8.932;2023-02-23T16:11:34;11.70;99.90
7174;DHT22;3628;48.654;8.932;2023-02-23T16:14:01;11.60;99.90
7174;DHT22;3628;48.654;8.932;2023-02-23T16:16:28;11.60;99.90
7174;DHT22;3628;48.654;8.932;2023-02-23T16:18:57;11.60;99.90
7174;DHT22;3628;48.654;8.932;2023-02-23T16:21:28;11.60;99.90
7174;DHT22;3628;48.654;8.932;2023-02-23T16:23:56;11.50;99.90
7174;DHT22;3628;48.654;8.932;2023-02-23T16:26:57;11.50;99.90
7174;DHT22;3628;48.654;8.932;2023-02-23T16:29:33;11.50;99.90
7174;DHT22;3628;48.654;8.932;2023-02-23T16:32:16;11.40;99.90
7174;DHT22;3628;48.654;8.932;2023-02-23T16:34:54;11.20;99.90
7174;DHT22;3628;48.654;8.932;2023-02-23T16:37:23;11.20;99.90
7174;DHT22;3628;48.654;8.932;2023-02-23T16:39:50;11.00;99.90
7174;DHT22;3628;48.654;8.932;2023-02-23T16:42:31;10.90;99.90
7174;DHT22;3628;48.654;8.932;2023-02-23T16:44:57;10.90;99.90
7174;DHT22;3628;48.654;8.932;2023-02-23T16:49:50;10.70;99.90
7174;DHT22;3628;48.654;8.932;2023-02-23T16:52:18;10.70;99.90
7174;DHT22;3628;48.654;8.932;2023-02-23T16:54:44;10.60;99.90
7174;DHT22;3628;48.654;8.932;2023-02-23T16:57:27;10.60;99.90
7174;DHT22;3628;48.654;8.932;2023-02-23T16:59:54;10.60;99.90
7174;DHT22;3628;48.654;8.932;2023-02-23T17:02:19;10.60;99.90
7174;DHT22;3628;48.654;8.932;2023-02-23T17:04:49;10.50;99.90
7174;DHT22;3628;48.654;8.932;2023-02-23T17:07:17;10.50;99.90
7174;DHT22;3628;48.654;8.932;2023-02-23T17:09:42;10.50;99.90
7174;DHT22;3628;48.654;8.932;2023-02-23T17:12:15;10.50;99.90
7174;DHT22;3628;48.654;8.932;2023-02-23T17:14:46;10.60;99.90
7174;DHT22;3628;48.654;8.932;2023-02-23T17:17:15;10.50;99.90
7174;DHT22;3628;48.654;8.932;2023-02-23T17:19:40;10.50;99.90
7174;DHT22;3628;48.654;8.932;2023-02-23T17:22:08;10.60;99.90
7174;DHT22;3628;48.654;8.932;2023-02-23T17:24:34;10.60;99.90
7174;DHT22;3628;48.654;8.932;2023-02-23T17:26:59;10.50;99.90
7174;DHT22;3628;48.654;8.932;2023-02-23T17:29:25;10.50;99.90
7174;DHT22;3628;48.654;8.932;2023-02-23T17:31:50;10.50;99.90
7174;DHT22;3628;48.654;8.932;2023-02-23T17:34:16;10.50;99.90
7174;DHT22;3628;48.654;8.932;2023-02-23T17:36:41;10.50;99.90
7174;DHT22;3628;48.654;8.932;2023-02-23T17:39:07;10.40;99.90
7174;DHT22;3628;48.654;8.932;2023-02-23T17:41:34;10.30;99.90
7174;DHT22;3628;48.654;8.932;2023-02-23T17:44:00;10.30;99.90
7174;DHT22;3628;48.654;8.932;2023-02-23T17:46:27;10.20;99.90
7174;DHT22;3628;48.654;8.932;2023-02-23T17:48:53;10.10;99.90
7174;DHT22;3628;48.654;8.932;2023-02-23T17:51:18;10.00;99.90
7174;DHT22;3628;48.654;8.932;2023-02-23T17:53:45;9.90;99.90
7174;DHT22;3628;48.654;8.932;2023-02-23T17:56:11;9.90;99.90
7174;DHT22;3628;48.654;8.932;2023-02-23T17:58:38;9.80;99.90
7174;DHT22;3628;48.654;8.932;2023-02-23T18:01:05;9.80;99.90
7174;DHT22;3628;48.654;8.932;2023-02-23T18:03:33;9.80;99.90
7174;DHT22;3628;48.654;8.932;2023-02-23T18:06:03;9.80;99.90
7174;DHT22;3628;48.654;8.932;2023-02-23T18:08:29;9.80;99.90
7174;DHT22;3628;48.654;8.932;2023-02-23T18:10:56;9.80;99.90
7174;DHT22;3628;48.654;8.932;2023-02-23T18:13:22;9.90;99.90
7174;DHT22;3628;48.654;8.932;2023-02-23T18:15:54;9.90;99.90
7174;DHT22;3628;48.654;8.932;2023-02-23T18:18:21;9.80;99.90
7174;DHT22;3628;48.654;8.932;2023-02-23T18:20:56;9.80;99.90
7174;DHT22;3628;48.654;8.932;2023-02-23T18:23:22;9.80;99.90
7174;DHT22;3628;48.654;8.932;2023-02-23T18:25:48;9.80;99.90
7174;DHT22;3628;48.654;8.932;2023-02-23T18:28:15;9.80;99.90
7174;DHT22;3628;48.654;8.932;2023-02-23T18:30:41;9.90;99.90
7174;DHT22;3628;48.654;8.932;2023-02-23T18:33:07;10.00;99.90
7174;DHT22;3628;48.654;8.932;2023-02-23T18:35:38;10.10;99.90
7174;DHT22;3628;48.654;8.932;2023-02-23T18:38:06;10.10;99.90
7174;DHT22;3628;48.654;8.932;2023-02-23T18:40:32;10.10;99.90
7174;DHT22;3628;48.654;8.932;2023-02-23T18:42:58;10.20;99.90
7174;DHT22;3628;48.654;8.932;2023-02-23T18:45:24;10.20;99.90